Weather reports worldwide

Advertisment
Ploudalmezeau, France (7101): temperature & dewpoint: 09.12.2018 07:00:00 - 15.12.2018 07:00:00 (CET)Ploudalmezeau, France (7101): wind speed: 09.12.2018 07:00:00 - 15.12.2018 07:00:00 (CET)Ploudalmezeau, France (7101): wind direction: 09.12.2018 07:00:00 - 15.12.2018 07:00:00 (CET)Ploudalmezeau, France (7101): reduced air pressure: 09.12.2018 07:00:00 - 15.12.2018 07:00:00 (CET)Ploudalmezeau, France (7101): precipitation: 09.12.2018 07:00:00 - 15.12.2018 07:00:00 (CET)
Date & Time tt [°C] td [°C] ff [km/h] ff [kn] dd ppp [hPa] rr [mm]
15.12.2018 07:00:00 - - - - - - -
15.12.2018 06:00:00 11,3 11,3 24 13 S 1009,8 1,6
15.12.2018 05:00:00 10,0 10,0 16 8 S 1010,1 0,2
15.12.2018 04:00:00 9,6 9,6 28 15 S 1010,9 0,2
15.12.2018 03:00:00 8,9 8,9 31 17 S 1011,7 1,6
15.12.2018 02:00:00 8,3 8,2 26 14 S 1012,8 0,8
15.12.2018 01:00:00 8,0 7,9 27 14 S 1013,7 0,0
15.12.2018 00:00:00 7,3 6,7 25 13 SSE 1014,8 0,4
14.12.2018 23:00:00 7,3 6,1 26 14 S 1016,0 0,0
14.12.2018 22:00:00 6,5 5,4 22 12 SSE 1016,8 0,0
14.12.2018 21:00:00 5,7 4,8 20 11 SSE 1017,8 0,0
14.12.2018 20:00:00 5,5 4,5 22 12 SSE 1018,4 0,0
14.12.2018 19:00:00 5,5 4,5 22 12 SSE 1018,3 0,0
14.12.2018 18:00:00 5,4 4,5 21 11 S 1018,7 0,0
14.12.2018 17:00:00 5,5 4,8 18 10 S 1018,8 0,0
14.12.2018 16:00:00 5,4 4,7 18 10 S 1018,6 0,0
14.12.2018 15:00:00 5,2 4,3 20 11 S 1018,4 0,0
14.12.2018 14:00:00 5,0 4,1 20 11 SSE 1018,8 0,0
14.12.2018 13:00:00 5,2 4,6 17 9 S 1019,3 0,0
14.12.2018 12:00:00 4,4 4,3 16 8 SSE 1019,3 0,0
14.12.2018 11:00:00 3,9 3,8 15 8 SSE 1019,5 0,4
14.12.2018 10:00:00 3,7 3,6 12 7 SSE 1019,1 0,2
14.12.2018 09:00:00 3,4 3,3 13 7 SSE 1018,3 0,2
14.12.2018 08:00:00 3,4 3,3 13 7 SE 1017,5 0,2
14.12.2018 07:00:00 3,5 3,4 13 7 SSE 1017,6 0,6
14.12.2018 06:00:00 3,7 3,3 11 6 SSE 1017,1 0,2
14.12.2018 05:00:00 3,8 2,9 10 5 SSE 1016,8 0,0
14.12.2018 04:00:00 3,7 3,0 13 7 SE 1016,4 0,0
14.12.2018 03:00:00 3,6 2,9 12 6 S 1016,3 0,0
14.12.2018 02:00:00 3,6 3,2 15 8 SSE 1015,7 0,0
14.12.2018 01:00:00 3,6 3,3 14 8 SSE 1015,3 0,0
14.12.2018 00:00:00 4,0 3,9 14 8 SE 1014,8 0,2
13.12.2018 23:00:00 4,3 4,2 8 5 SE 1014,7 0,8
13.12.2018 22:00:00 4,6 4,5 10 5 SE 1013,9 0,2
13.12.2018 21:00:00 5,0 5,0 11 6 ESE 1013,0 0,0
13.12.2018 20:00:00 5,3 5,2 12 7 ESE 1011,9 0,0
13.12.2018 19:00:00 5,6 5,5 11 6 SE 1011,2 0,0
13.12.2018 18:00:00 5,9 5,5 9 5 SE 1010,4 0,4
13.12.2018 17:00:00 6,5 5,3 10 5 SE 1009,6 0,0
13.12.2018 16:00:00 6,8 5,3 10 6 SE 1008,4 0,0
13.12.2018 15:00:00 7,0 5,0 16 9 SE 1007,3 0,0
13.12.2018 14:00:00 6,9 4,9 17 9 SSE 1006,6 0,0
13.12.2018 13:00:00 6,6 4,6 17 9 SE 1006,2 0,0
13.12.2018 12:00:00 6,5 5,0 20 11 SE 1005,6 0,0
13.12.2018 11:00:00 6,0 4,8 22 12 SE 1004,8 0,0
13.12.2018 10:00:00 5,9 4,9 20 11 SE 1004,5 0,0
13.12.2018 09:00:00 5,3 4,6 24 13 SE 1004,0 0,0
13.12.2018 08:00:00 5,2 4,6 24 13 SE 1003,8 1,4
13.12.2018 07:00:00 5,6 5,0 22 12 SE 1003,9 1,6
13.12.2018 06:00:00 6,0 5,3 22 12 SE 1004,1 0,8
13.12.2018 05:00:00 6,0 5,1 22 12 SE 1004,5 0,2
13.12.2018 04:00:00 6,4 5,3 20 11 SE 1005,0 0,0
13.12.2018 03:00:00 6,4 5,3 22 12 SE 1005,6 0,0
13.12.2018 02:00:00 6,5 5,6 22 12 SSE 1006,4 0,0
13.12.2018 01:00:00 6,4 5,5 23 13 SSE 1006,7 0,0
13.12.2018 00:00:00 6,7 5,8 22 12 SSE 1007,9 0,0
12.12.2018 23:00:00 6,9 6,0 22 12 SSE 1009,2 0,0
12.12.2018 22:00:00 7,1 6,2 22 12 SE 1010,0 0,6
12.12.2018 21:00:00 7,3 6,1 20 11 SSE 1011,1 0,0
12.12.2018 20:00:00 7,4 6,2 21 12 SSE 1012,6 0,0
12.12.2018 19:00:00 7,5 6,1 19 10 SE 1012,9 0,0
12.12.2018 18:00:00 7,5 6,6 16 9 SSE 1013,5 0,0
12.12.2018 17:00:00 7,9 7,1 17 9 S 1014,3 0,0
12.12.2018 16:00:00 8,5 7,6 15 8 S 1014,8 0,0
12.12.2018 15:00:00 9,6 7,9 14 7 S 1015,3 0,0
12.12.2018 14:00:00 10,2 8,6 13 7 S 1016,4 0,0
12.12.2018 13:00:00 11,0 8,6 9 5 S 1017,2 0,0
12.12.2018 12:00:00 12,1 8,2 5 3 SSW 1018,0 0,0
12.12.2018 11:00:00 10,5 8,1 6 4 SW 1018,4 0,0
12.12.2018 10:00:00 8,3 7,1 3 1 E 1018,2 0,0
12.12.2018 09:00:00 8,2 7,0 8 5 WSW 1018,7 0,0
12.12.2018 08:00:00 8,0 6,8 6 3 WSW 1018,4 0,0
12.12.2018 07:00:00 9,0 7,3 8 4 NW 1018,2 0,0
12.12.2018 06:00:00 9,4 8,5 9 5 NW 1018,2 0,0
12.12.2018 05:00:00 9,1 8,8 9 5 SW 1018,4 0,2
12.12.2018 04:00:00 9,0 8,5 11 6 SSW 1018,3 0,0
12.12.2018 03:00:00 8,7 8,2 9 5 S 1017,8 0,0
12.12.2018 02:00:00 8,8 8,2 8 5 SSE 1017,6 0,2
12.12.2018 01:00:00 9,0 8,7 10 6 SSE 1017,9 1,0
12.12.2018 00:00:00 9,2 8,6 9 5 SE 1017,8 0,2
11.12.2018 23:00:00 9,2 8,3 8 4 W 1018,1 5,2
11.12.2018 22:00:00 10,3 9,2 22 12 S 1017,4 2,0
11.12.2018 21:00:00 10,8 8,0 19 11 S 1017,3 0,0
11.12.2018 20:00:00 10,6 7,5 19 10 S 1018,2 0,0
11.12.2018 19:00:00 10,3 7,5 19 10 S 1018,7 0,0
11.12.2018 18:00:00 10,1 7,0 19 10 S 1018,9 0,0
11.12.2018 17:00:00 10,5 7,2 25 14 S 1019,0 0,0
11.12.2018 16:00:00 10,7 7,0 22 12 SSW 1019,4 0,0
11.12.2018 15:00:00 11,1 7,2 22 12 S 1019,6 0,0
11.12.2018 14:00:00 10,7 8,1 18 10 S 1020,6 0,0
11.12.2018 13:00:00 10,4 7,8 20 11 S 1021,3 0,0
11.12.2018 12:00:00 9,6 7,5 19 10 S 1022,1 0,0
11.12.2018 11:00:00 8,8 6,8 18 10 SSE 1022,7 0,0
11.12.2018 10:00:00 8,0 6,6 15 8 SE 1022,8 0,0
11.12.2018 09:00:00 7,8 6,7 9 5 SE 1023,4 0,0
11.12.2018 08:00:00 8,3 6,9 9 5 SE 1023,8 0,0
11.12.2018 07:00:00 8,9 7,0 10 5 SE 1023,7 0,0
11.12.2018 06:00:00 8,9 6,7 8 4 SE 1024,3 0,0
11.12.2018 05:00:00 9,3 6,7 8 4 SSE 1024,8 0,0
11.12.2018 04:00:00 9,5 7,1 9 5 SSE 1025,8 0,0
11.12.2018 03:00:00 9,7 7,3 9 5 SSE 1026,3 0,0
11.12.2018 02:00:00 9,8 7,6 8 4 S 1027,2 0,0
11.12.2018 01:00:00 9,8 8,1 7 4 S 1028,0 0,0
11.12.2018 00:00:00 9,8 8,4 6 4 SE 1028,4 0,0
10.12.2018 23:00:00 9,9 8,2 9 5 SSE 1028,7 0,0
10.12.2018 22:00:00 10,2 8,5 8 4 SSE 1028,8 0,0
10.12.2018 21:00:00 10,2 8,1 8 4 S 1029,1 0,0
10.12.2018 20:00:00 10,2 7,8 9 5 S 1029,5 0,0
10.12.2018 19:00:00 10,2 7,8 10 5 S 1029,6 0,0
10.12.2018 18:00:00 10,4 7,6 8 4 SSW 1030,0 0,0
10.12.2018 17:00:00 11,0 7,5 4 2 SW 1030,5 0,0
10.12.2018 16:00:00 11,7 8,0 5 3 WSW 1030,7 0,0
10.12.2018 15:00:00 12,4 7,5 8 5 W 1030,9 0,0
10.12.2018 14:00:00 12,3 7,6 9 5 WNW 1031,2 0,0
10.12.2018 13:00:00 12,1 7,2 10 5 NW 1031,6 0,0
10.12.2018 12:00:00 11,2 6,7 11 6 WNW 1032,0 0,0
10.12.2018 11:00:00 10,9 7,4 11 6 W 1031,9 0,0
10.12.2018 10:00:00 10,0 6,7 9 5 WNW 1031,8 0,0
10.12.2018 09:00:00 9,6 5,4 11 6 NW 1031,7 0,0
10.12.2018 08:00:00 9,2 5,7 13 7 NW 1031,7 0,0
10.12.2018 07:00:00 10,1 6,6 13 7 NW 1031,6 0,0
10.12.2018 06:00:00 9,3 6,4 10 6 NW 1031,4 0,0
10.12.2018 05:00:00 9,9 6,4 16 8 NW 1031,2 0,0
10.12.2018 04:00:00 9,6 6,1 14 8 NW 1031,5 0,0
10.12.2018 03:00:00 9,7 5,9 16 8 NW 1031,2 0,0
10.12.2018 02:00:00 10,0 5,4 21 12 NW 1031,0 0,0
10.12.2018 01:00:00 10,2 6,2 19 10 NW 1031,0 0,0
10.12.2018 00:00:00 10,0 5,8 21 11 NNW 1030,6 0,0
09.12.2018 23:00:00 10,4 5,8 27 14 NW 1030,5 0,0
09.12.2018 22:00:00 10,4 6,0 28 15 NW 1029,9 0,0
09.12.2018 21:00:00 10,5 6,1 24 13 NW 1029,4 0,0
09.12.2018 20:00:00 10,8 6,2 29 16 NW 1028,8 0,0
09.12.2018 19:00:00 10,9 6,2 30 16 NW 1028,2 0,0
09.12.2018 18:00:00 10,9 6,4 30 16 NW 1027,3 0,0
09.12.2018 17:00:00 11,0 6,5 34 19 NW 1026,5 0,0
09.12.2018 16:00:00 11,3 6,8 36 19 NW 1025,6 0,0
09.12.2018 15:00:00 11,6 7,7 34 19 NW 1024,7 0,0
09.12.2018 14:00:00 11,7 7,6 35 19 NW 1023,9 0,0
09.12.2018 13:00:00 11,9 7,2 44 24 NW 1023,3 0,0
09.12.2018 12:00:00 11,7 7,8 35 19 NW 1022,7 0,0
09.12.2018 11:00:00 11,8 7,5 42 23 NW 1021,4 0,0
09.12.2018 10:00:00 11,4 7,9 46 25 WNW 1020,4 0,0
09.12.2018 09:00:00 11,7 8,0 43 23 WNW 1019,0 0,0
09.12.2018 08:00:00 11,1 8,1 46 25 WNW 1018,5 0,2
09.12.2018 07:00:00 11,4 7,7 46 25 WNW 1017,4 0,0

tt = temperature
td = dewpoint
ff = wind speed
dd = wind direction
ppp = reduced air pressure
rr = precipitation

Next stations